sensor_id;sensor_type;location;lat;lon;timestamp;P1;durP1;ratioP1;P2;durP2;ratioP2
53513;SDS011;39768;54.148;12.174;2022-12-13T00:02:55;0.98;;;0.90;;
53513;SDS011;39768;54.148;12.174;2022-12-13T00:06:57;1.20;;;1.20;;
53513;SDS011;39768;54.148;12.174;2022-12-13T00:11:02;0.93;;;0.93;;
53513;SDS011;39768;54.148;12.174;2022-12-13T00:15:06;0.95;;;0.70;;
53513;SDS011;39768;54.148;12.174;2022-12-13T00:19:08;1.58;;;1.00;;
53513;SDS011;39768;54.148;12.174;2022-12-13T00:23:10;0.70;;;0.70;;
53513;SDS011;39768;54.148;12.174;2022-12-13T00:27:11;0.55;;;0.55;;
53513;SDS011;39768;54.148;12.174;2022-12-13T00:31:12;0.80;;;0.80;;
53513;SDS011;39768;54.148;12.174;2022-12-13T00:35:40;1.92;;;1.20;;
53513;SDS011;39768;54.148;12.174;2022-12-13T00:39:42;1.08;;;1.08;;
53513;SDS011;39768;54.148;12.174;2022-12-13T00:43:44;0.73;;;0.73;;
53513;SDS011;39768;54.148;12.174;2022-12-13T00:47:45;1.15;;;1.05;;
53513;SDS011;39768;54.148;12.174;2022-12-13T00:51:47;1.08;;;1.08;;
53513;SDS011;39768;54.148;12.174;2022-12-13T00:55:49;1.38;;;1.38;;
53513;SDS011;39768;54.148;12.174;2022-12-13T00:59:51;1.35;;;1.33;;
53513;SDS011;39768;54.148;12.174;2022-12-13T01:03:52;0.80;;;0.80;;
53513;SDS011;39768;54.148;12.174;2022-12-13T01:07:55;0.70;;;0.70;;
53513;SDS011;39768;54.148;12.174;2022-12-13T01:11:57;0.88;;;0.88;;
53513;SDS011;39768;54.148;12.174;2022-12-13T01:16:01;0.88;;;0.88;;
53513;SDS011;39768;54.148;12.174;2022-12-13T01:20:04;1.13;;;1.13;;
53513;SDS011;39768;54.148;12.174;2022-12-13T01:24:06;0.85;;;0.85;;
53513;SDS011;39768;54.148;12.174;2022-12-13T01:28:08;0.52;;;0.52;;
53513;SDS011;39768;54.148;12.174;2022-12-13T01:32:11;1.10;;;1.10;;
53513;SDS011;39768;54.148;12.174;2022-12-13T01:36:14;0.90;;;0.90;;
53513;SDS011;39768;54.148;12.174;2022-12-13T01:40:17;1.17;;;0.50;;
53513;SDS011;39768;54.148;12.174;2022-12-13T01:49:14;0.50;;;0.50;;
53513;SDS011;39768;54.148;12.174;2022-12-13T01:53:22;0.52;;;0.52;;
53513;SDS011;39768;54.148;12.174;2022-12-13T01:57:27;0.57;;;0.57;;
53513;SDS011;39768;54.148;12.174;2022-12-13T02:01:28;1.65;;;1.20;;
53513;SDS011;39768;54.148;12.174;2022-12-13T02:09:41;0.40;;;0.40;;
53513;SDS011;39768;54.148;12.174;2022-12-13T02:13:44;1.00;;;0.55;;
53513;SDS011;39768;54.148;12.174;2022-12-13T02:17:51;1.02;;;1.02;;
53513;SDS011;39768;54.148;12.174;2022-12-13T02:22:02;0.50;;;0.50;;
53513;SDS011;39768;54.148;12.174;2022-12-13T02:26:26;0.40;;;0.40;;
53513;SDS011;39768;54.148;12.174;2022-12-13T02:30:51;6.80;;;0.75;;
53513;SDS011;39768;54.148;12.174;2022-12-13T02:35:04;0.50;;;0.50;;
53513;SDS011;39768;54.148;12.174;2022-12-13T02:39:16;0.60;;;0.60;;
53513;SDS011;39768;54.148;12.174;2022-12-13T02:43:35;0.65;;;0.65;;
53513;SDS011;39768;54.148;12.174;2022-12-13T02:47:46;0.85;;;0.85;;
53513;SDS011;39768;54.148;12.174;2022-12-13T02:51:52;1.55;;;0.90;;
53513;SDS011;39768;54.148;12.174;2022-12-13T02:55:54;0.68;;;0.68;;
53513;SDS011;39768;54.148;12.174;2022-12-13T02:59:56;0.40;;;0.40;;
53513;SDS011;39768;54.148;12.174;2022-12-13T03:08:33;0.50;;;0.50;;
53513;SDS011;39768;54.148;12.174;2022-12-13T03:12:50;0.50;;;0.50;;
53513;SDS011;39768;54.148;12.174;2022-12-13T03:17:15;0.85;;;0.85;;
53513;SDS011;39768;54.148;12.174;2022-12-13T03:21:20;0.95;;;0.80;;
53513;SDS011;39768;54.148;12.174;2022-12-13T03:25:23;0.98;;;0.98;;
53513;SDS011;39768;54.148;12.174;2022-12-13T03:29:32;0.43;;;0.43;;
53513;SDS011;39768;54.148;12.174;2022-12-13T03:33:34;0.50;;;0.50;;
53513;SDS011;39768;54.148;12.174;2022-12-13T03:37:36;0.70;;;0.70;;
53513;SDS011;39768;54.148;12.174;2022-12-13T03:41:37;0.85;;;0.68;;
53513;SDS011;39768;54.148;12.174;2022-12-13T03:45:39;0.43;;;0.43;;
53513;SDS011;39768;54.148;12.174;2022-12-13T03:49:40;0.63;;;0.63;;
53513;SDS011;39768;54.148;12.174;2022-12-13T03:53:42;0.63;;;0.63;;
53513;SDS011;39768;54.148;12.174;2022-12-13T03:57:44;0.40;;;0.40;;
53513;SDS011;39768;54.148;12.174;2022-12-13T04:01:46;0.70;;;0.70;;
53513;SDS011;39768;54.148;12.174;2022-12-13T04:05:47;0.47;;;0.47;;
53513;SDS011;39768;54.148;12.174;2022-12-13T04:09:49;0.50;;;0.50;;
53513;SDS011;39768;54.148;12.174;2022-12-13T04:13:50;0.73;;;0.73;;
53513;SDS011;39768;54.148;12.174;2022-12-13T04:17:53;0.65;;;0.65;;
53513;SDS011;39768;54.148;12.174;2022-12-13T04:21:55;0.40;;;0.40;;
53513;SDS011;39768;54.148;12.174;2022-12-13T04:25:57;1.27;;;1.27;;
53513;SDS011;39768;54.148;12.174;2022-12-13T04:30:00;1.80;;;0.57;;
53513;SDS011;39768;54.148;12.174;2022-12-13T04:34:01;0.60;;;0.60;;
53513;SDS011;39768;54.148;12.174;2022-12-13T04:38:03;0.50;;;0.50;;
53513;SDS011;39768;54.148;12.174;2022-12-13T04:42:04;0.40;;;0.40;;
53513;SDS011;39768;54.148;12.174;2022-12-13T04:46:06;0.40;;;0.40;;
53513;SDS011;39768;54.148;12.174;2022-12-13T04:50:08;0.60;;;0.60;;
53513;SDS011;39768;54.148;12.174;2022-12-13T04:54:10;0.60;;;0.60;;
53513;SDS011;39768;54.148;12.174;2022-12-13T04:58:24;0.40;;;0.40;;
53513;SDS011;39768;54.148;12.174;2022-12-13T05:02:25;0.60;;;0.60;;
53513;SDS011;39768;54.148;12.174;2022-12-13T05:06:28;0.40;;;0.40;;
53513;SDS011;39768;54.148;12.174;2022-12-13T05:10:29;0.80;;;0.80;;
53513;SDS011;39768;54.148;12.174;2022-12-13T05:14:37;0.50;;;0.50;;
53513;SDS011;39768;54.148;12.174;2022-12-13T05:18:39;0.63;;;0.63;;
53513;SDS011;39768;54.148;12.174;2022-12-13T05:22:40;0.50;;;0.50;;
53513;SDS011;39768;54.148;12.174;2022-12-13T05:26:42;0.40;;;0.40;;
53513;SDS011;39768;54.148;12.174;2022-12-13T05:30:43;0.90;;;0.60;;
53513;SDS011;39768;54.148;12.174;2022-12-13T05:34:45;1.20;;;0.90;;
53513;SDS011;39768;54.148;12.174;2022-12-13T05:38:46;0.70;;;0.70;;
53513;SDS011;39768;54.148;12.174;2022-12-13T05:42:48;0.60;;;0.60;;
53513;SDS011;39768;54.148;12.174;2022-12-13T05:46:49;0.40;;;0.40;;
53513;SDS011;39768;54.148;12.174;2022-12-13T05:50:50;0.60;;;0.60;;
53513;SDS011;39768;54.148;12.174;2022-12-13T05:55:11;0.50;;;0.50;;
53513;SDS011;39768;54.148;12.174;2022-12-13T05:59:13;0.70;;;0.68;;
53513;SDS011;39768;54.148;12.174;2022-12-13T06:03:15;0.82;;;0.82;;
53513;SDS011;39768;54.148;12.174;2022-12-13T06:07:16;0.50;;;0.50;;
53513;SDS011;39768;54.148;12.174;2022-12-13T06:11:18;0.85;;;0.85;;
53513;SDS011;39768;54.148;12.174;2022-12-13T06:15:32;0.57;;;0.50;;
53513;SDS011;39768;54.148;12.174;2022-12-13T06:19:35;0.50;;;0.50;;
53513;SDS011;39768;54.148;12.174;2022-12-13T06:23:36;0.50;;;0.50;;
53513;SDS011;39768;54.148;12.174;2022-12-13T06:27:38;0.47;;;0.47;;
53513;SDS011;39768;54.148;12.174;2022-12-13T06:31:39;0.52;;;0.52;;
53513;SDS011;39768;54.148;12.174;2022-12-13T06:35:41;0.32;;;0.32;;
53513;SDS011;39768;54.148;12.174;2022-12-13T06:39:42;0.50;;;0.50;;
53513;SDS011;39768;54.148;12.174;2022-12-13T06:43:45;1.08;;;1.08;;
53513;SDS011;39768;54.148;12.174;2022-12-13T06:47:47;0.40;;;0.40;;
53513;SDS011;39768;54.148;12.174;2022-12-13T06:51:49;0.40;;;0.40;;
53513;SDS011;39768;54.148;12.174;2022-12-13T06:55:50;0.47;;;0.47;;
53513;SDS011;39768;54.148;12.174;2022-12-13T06:59:52;0.40;;;0.40;;
53513;SDS011;39768;54.148;12.174;2022-12-13T07:03:53;0.65;;;0.50;;
53513;SDS011;39768;54.148;12.174;2022-12-13T07:07:56;0.75;;;0.63;;
53513;SDS011;39768;54.148;12.174;2022-12-13T07:11:58;0.88;;;0.88;;
53513;SDS011;39768;54.148;12.174;2022-12-13T07:16:00;0.45;;;0.45;;
53513;SDS011;39768;54.148;12.174;2022-12-13T07:20:05;0.35;;;0.35;;
53513;SDS011;39768;54.148;12.174;2022-12-13T07:24:10;1.42;;;0.38;;
53513;SDS011;39768;54.148;12.174;2022-12-13T07:28:11;0.35;;;0.35;;
53513;SDS011;39768;54.148;12.174;2022-12-13T07:32:13;0.43;;;0.43;;
53513;SDS011;39768;54.148;12.174;2022-12-13T07:36:16;0.40;;;0.40;;
53513;SDS011;39768;54.148;12.174;2022-12-13T07:40:21;0.60;;;0.60;;
53513;SDS011;39768;54.148;12.174;2022-12-13T07:44:23;0.82;;;0.82;;
53513;SDS011;39768;54.148;12.174;2022-12-13T07:48:25;1.23;;;0.50;;
53513;SDS011;39768;54.148;12.174;2022-12-13T07:52:27;0.40;;;0.40;;
53513;SDS011;39768;54.148;12.174;2022-12-13T07:56:29;0.70;;;0.70;;
53513;SDS011;39768;54.148;12.174;2022-12-13T08:00:30;0.40;;;0.40;;
53513;SDS011;39768;54.148;12.174;2022-12-13T08:04:33;0.68;;;0.68;;
53513;SDS011;39768;54.148;12.174;2022-12-13T08:08:38;0.57;;;0.57;;
53513;SDS011;39768;54.148;12.174;2022-12-13T08:12:40;0.40;;;0.40;;
53513;SDS011;39768;54.148;12.174;2022-12-13T08:16:41;0.70;;;0.70;;
53513;SDS011;39768;54.148;12.174;2022-12-13T08:20:43;0.43;;;0.43;;
53513;SDS011;39768;54.148;12.174;2022-12-13T08:24:44;0.75;;;0.60;;
53513;SDS011;39768;54.148;12.174;2022-12-13T08:28:46;1.33;;;0.70;;
53513;SDS011;39768;54.148;12.174;2022-12-13T08:32:50;0.63;;;0.63;;
53513;SDS011;39768;54.148;12.174;2022-12-13T08:36:52;1.10;;;0.50;;
53513;SDS011;39768;54.148;12.174;2022-12-13T08:41:03;1.15;;;1.05;;
53513;SDS011;39768;54.148;12.174;2022-12-13T08:45:06;0.95;;;0.95;;
53513;SDS011;39768;54.148;12.174;2022-12-13T08:49:09;0.70;;;0.70;;
53513;SDS011;39768;54.148;12.174;2022-12-13T08:53:11;1.75;;;1.25;;
53513;SDS011;39768;54.148;12.174;2022-12-13T08:57:30;1.15;;;1.05;;
53513;SDS011;39768;54.148;12.174;2022-12-13T09:01:31;1.23;;;1.13;;
53513;SDS011;39768;54.148;12.174;2022-12-13T09:05:33;2.92;;;2.30;;
53513;SDS011;39768;54.148;12.174;2022-12-13T09:09:35;1.98;;;1.20;;
53513;SDS011;39768;54.148;12.174;2022-12-13T09:13:38;0.77;;;0.77;;
53513;SDS011;39768;54.148;12.174;2022-12-13T09:17:44;1.13;;;1.13;;
53513;SDS011;39768;54.148;12.174;2022-12-13T09:21:52;4.35;;;2.17;;
53513;SDS011;39768;54.148;12.174;2022-12-13T09:26:03;3.50;;;2.10;;
53513;SDS011;39768;54.148;12.174;2022-12-13T09:30:07;4.93;;;3.03;;
53513;SDS011;39768;54.148;12.174;2022-12-13T09:34:13;6.13;;;2.95;;
53513;SDS011;39768;54.148;12.174;2022-12-13T09:38:14;6.97;;;2.58;;
53513;SDS011;39768;54.148;12.174;2022-12-13T09:42:21;3.65;;;2.35;;
53513;SDS011;39768;54.148;12.174;2022-12-13T09:46:31;11.20;;;4.68;;
53513;SDS011;39768;54.148;12.174;2022-12-13T09:50:45;18.40;;;5.32;;
53513;SDS011;39768;54.148;12.174;2022-12-13T09:54:59;15.50;;;3.28;;
53513;SDS011;39768;54.148;12.174;2022-12-13T09:59:00;8.98;;;2.88;;
53513;SDS011;39768;54.148;12.174;2022-12-13T10:03:03;10.63;;;3.28;;
53513;SDS011;39768;54.148;12.174;2022-12-13T10:07:18;8.23;;;3.67;;
53513;SDS011;39768;54.148;12.174;2022-12-13T10:11:22;5.50;;;2.42;;
53513;SDS011;39768;54.148;12.174;2022-12-13T10:15:32;7.72;;;3.35;;
53513;SDS011;39768;54.148;12.174;2022-12-13T10:19:39;4.85;;;2.38;;
53513;SDS011;39768;54.148;12.174;2022-12-13T10:23:43;7.40;;;4.65;;
53513;SDS011;39768;54.148;12.174;2022-12-13T10:28:05;5.88;;;3.53;;
53513;SDS011;39768;54.148;12.174;2022-12-13T10:32:10;8.38;;;3.33;;
53513;SDS011;39768;54.148;12.174;2022-12-13T10:36:29;5.60;;;2.53;;
53513;SDS011;39768;54.148;12.174;2022-12-13T10:40:36;7.38;;;3.03;;
53513;SDS011;39768;54.148;12.174;2022-12-13T10:44:40;4.07;;;2.75;;
53513;SDS011;39768;54.148;12.174;2022-12-13T10:48:49;4.45;;;2.85;;
53513;SDS011;39768;54.148;12.174;2022-12-13T10:52:52;6.05;;;3.72;;
53513;SDS011;39768;54.148;12.174;2022-12-13T10:56:55;15.23;;;4.28;;
53513;SDS011;39768;54.148;12.174;2022-12-13T11:01:08;5.43;;;3.63;;
53513;SDS011;39768;54.148;12.174;2022-12-13T11:05:20;6.05;;;3.40;;
53513;SDS011;39768;54.148;12.174;2022-12-13T11:09:30;1.85;;;1.73;;
53513;SDS011;39768;54.148;12.174;2022-12-13T11:17:58;3.63;;;2.50;;
53513;SDS011;39768;54.148;12.174;2022-12-13T11:22:02;4.32;;;2.85;;
53513;SDS011;39768;54.148;12.174;2022-12-13T11:26:08;8.50;;;3.47;;
53513;SDS011;39768;54.148;12.174;2022-12-13T11:30:20;7.50;;;4.25;;
53513;SDS011;39768;54.148;12.174;2022-12-13T11:34:29;4.43;;;2.60;;
53513;SDS011;39768;54.148;12.174;2022-12-13T11:39:09;3.17;;;2.88;;
53513;SDS011;39768;54.148;12.174;2022-12-13T11:48:03;2.65;;;2.45;;
53513;SDS011;39768;54.148;12.174;2022-12-13T11:56:29;4.93;;;3.40;;
53513;SDS011;39768;54.148;12.174;2022-12-13T12:00:40;2.22;;;2.03;;
53513;SDS011;39768;54.148;12.174;2022-12-13T12:04:50;15.05;;;4.13;;
53513;SDS011;39768;54.148;12.174;2022-12-13T12:09:04;9.48;;;3.80;;
53513;SDS011;39768;54.148;12.174;2022-12-13T12:17:30;7.13;;;4.40;;
53513;SDS011;39768;54.148;12.174;2022-12-13T12:26:08;5.07;;;2.90;;
53513;SDS011;39768;54.148;12.174;2022-12-13T12:30:18;4.53;;;2.65;;
53513;SDS011;39768;54.148;12.174;2022-12-13T12:42:54;6.45;;;2.50;;
53513;SDS011;39768;54.148;12.174;2022-12-13T13:05:25;3.30;;;2.28;;
53513;SDS011;39768;54.148;12.174;2022-12-13T13:09:33;6.55;;;2.42;;
53513;SDS011;39768;54.148;12.174;2022-12-13T13:17:48;2.22;;;2.13;;
53513;SDS011;39768;54.148;12.174;2022-12-13T13:21:50;4.80;;;3.13;;
53513;SDS011;39768;54.148;12.174;2022-12-13T13:25:54;4.25;;;3.83;;
53513;SDS011;39768;54.148;12.174;2022-12-13T13:34:26;5.68;;;2.08;;
53513;SDS011;39768;54.148;12.174;2022-12-13T13:38:55;8.77;;;3.78;;
53513;SDS011;39768;54.148;12.174;2022-12-13T13:43:06;8.13;;;4.03;;
53513;SDS011;39768;54.148;12.174;2022-12-13T13:47:11;7.18;;;4.50;;
53513;SDS011;39768;54.148;12.174;2022-12-13T14:04:59;3.50;;;3.30;;
53513;SDS011;39768;54.148;12.174;2022-12-13T14:18:38;3.03;;;2.65;;
53513;SDS011;39768;54.148;12.174;2022-12-13T14:31:46;6.75;;;4.10;;
53513;SDS011;39768;54.148;12.174;2022-12-13T14:35:49;3.90;;;3.45;;
53513;SDS011;39768;54.148;12.174;2022-12-13T14:39:55;6.05;;;4.07;;
53513;SDS011;39768;54.148;12.174;2022-12-13T14:48:23;8.35;;;3.90;;
53513;SDS011;39768;54.148;12.174;2022-12-13T14:52:32;10.13;;;5.00;;
53513;SDS011;39768;54.148;12.174;2022-12-13T14:56:52;6.38;;;3.63;;
53513;SDS011;39768;54.148;12.174;2022-12-13T15:00:55;3.55;;;3.25;;
53513;SDS011;39768;54.148;12.174;2022-12-13T15:05:00;10.07;;;3.80;;
53513;SDS011;39768;54.148;12.174;2022-12-13T15:09:09;8.98;;;3.78;;
53513;SDS011;39768;54.148;12.174;2022-12-13T15:26:06;5.28;;;2.45;;
53513;SDS011;39768;54.148;12.174;2022-12-13T15:30:12;4.57;;;2.70;;
53513;SDS011;39768;54.148;12.174;2022-12-13T15:34:22;4.82;;;3.17;;
53513;SDS011;39768;54.148;12.174;2022-12-13T15:38:32;7.32;;;3.38;;
53513;SDS011;39768;54.148;12.174;2022-12-13T15:42:36;3.60;;;2.38;;
53513;SDS011;39768;54.148;12.174;2022-12-13T15:46:44;4.55;;;2.67;;
53513;SDS011;39768;54.148;12.174;2022-12-13T15:50:49;4.35;;;2.70;;
53513;SDS011;39768;54.148;12.174;2022-12-13T15:55:20;8.82;;;2.70;;
53513;SDS011;39768;54.148;12.174;2022-12-13T15:59:33;3.25;;;2.78;;
53513;SDS011;39768;54.148;12.174;2022-12-13T16:03:39;3.83;;;3.17;;
53513;SDS011;39768;54.148;12.174;2022-12-13T16:07:47;2.58;;;2.35;;
53513;SDS011;39768;54.148;12.174;2022-12-13T16:11:54;2.80;;;2.17;;
53513;SDS011;39768;54.148;12.174;2022-12-13T16:15:59;4.75;;;2.72;;
53513;SDS011;39768;54.148;12.174;2022-12-13T16:20:14;5.15;;;2.05;;
53513;SDS011;39768;54.148;12.174;2022-12-13T16:24:17;6.18;;;3.03;;
53513;SDS011;39768;54.148;12.174;2022-12-13T16:28:19;5.28;;;3.90;;
53513;SDS011;39768;54.148;12.174;2022-12-13T16:32:26;6.05;;;3.95;;
53513;SDS011;39768;54.148;12.174;2022-12-13T16:36:28;3.53;;;2.10;;
53513;SDS011;39768;54.148;12.174;2022-12-13T16:40:29;5.85;;;3.00;;
53513;SDS011;39768;54.148;12.174;2022-12-13T16:44:33;9.23;;;3.65;;
53513;SDS011;39768;54.148;12.174;2022-12-13T16:48:36;6.38;;;2.35;;
53513;SDS011;39768;54.148;12.174;2022-12-13T16:52:37;6.57;;;2.85;;
53513;SDS011;39768;54.148;12.174;2022-12-13T16:56:40;9.23;;;3.30;;
53513;SDS011;39768;54.148;12.174;2022-12-13T17:00:42;5.85;;;2.25;;
53513;SDS011;39768;54.148;12.174;2022-12-13T17:04:45;2.70;;;2.42;;
53513;SDS011;39768;54.148;12.174;2022-12-13T17:08:46;7.53;;;3.25;;
53513;SDS011;39768;54.148;12.174;2022-12-13T17:12:48;3.78;;;2.75;;
53513;SDS011;39768;54.148;12.174;2022-12-13T17:16:49;5.03;;;2.45;;
53513;SDS011;39768;54.148;12.174;2022-12-13T17:20:51;5.95;;;3.70;;
53513;SDS011;39768;54.148;12.174;2022-12-13T17:24:59;8.18;;;2.88;;
53513;SDS011;39768;54.148;12.174;2022-12-13T17:29:00;9.57;;;3.42;;
53513;SDS011;39768;54.148;12.174;2022-12-13T17:33:02;5.45;;;3.10;;
53513;SDS011;39768;54.148;12.174;2022-12-13T17:37:04;7.80;;;3.70;;
53513;SDS011;39768;54.148;12.174;2022-12-13T17:41:11;7.18;;;3.58;;
53513;SDS011;39768;54.148;12.174;2022-12-13T17:45:13;7.68;;;2.65;;
53513;SDS011;39768;54.148;12.174;2022-12-13T17:49:15;6.47;;;2.83;;
53513;SDS011;39768;54.148;12.174;2022-12-13T17:53:17;2.95;;;2.40;;
53513;SDS011;39768;54.148;12.174;2022-12-13T17:57:18;3.72;;;2.85;;
53513;SDS011;39768;54.148;12.174;2022-12-13T18:01:21;3.40;;;2.05;;
53513;SDS011;39768;54.148;12.174;2022-12-13T18:05:24;11.80;;;4.22;;
53513;SDS011;39768;54.148;12.174;2022-12-13T18:09:26;9.73;;;3.72;;
53513;SDS011;39768;54.148;12.174;2022-12-13T18:13:28;1.30;;;1.30;;
53513;SDS011;39768;54.148;12.174;2022-12-13T18:17:30;4.53;;;2.55;;
53513;SDS011;39768;54.148;12.174;2022-12-13T18:21:51;2.17;;;2.08;;
53513;SDS011;39768;54.148;12.174;2022-12-13T18:25:57;1.40;;;1.30;;
53513;SDS011;39768;54.148;12.174;2022-12-13T18:30:00;7.40;;;3.88;;
53513;SDS011;39768;54.148;12.174;2022-12-13T18:34:01;4.63;;;2.80;;
53513;SDS011;39768;54.148;12.174;2022-12-13T18:38:03;3.33;;;2.55;;
53513;SDS011;39768;54.148;12.174;2022-12-13T18:42:04;1.60;;;1.52;;
53513;SDS011;39768;54.148;12.174;2022-12-13T18:46:07;2.25;;;2.05;;
53513;SDS011;39768;54.148;12.174;2022-12-13T18:50:10;2.78;;;1.50;;
53513;SDS011;39768;54.148;12.174;2022-12-13T18:54:11;3.65;;;2.90;;
53513;SDS011;39768;54.148;12.174;2022-12-13T18:58:13;4.13;;;2.63;;
53513;SDS011;39768;54.148;12.174;2022-12-13T19:02:15;5.28;;;3.17;;
53513;SDS011;39768;54.148;12.174;2022-12-13T19:06:18;3.53;;;3.22;;
53513;SDS011;39768;54.148;12.174;2022-12-13T19:10:21;9.05;;;4.78;;
53513;SDS011;39768;54.148;12.174;2022-12-13T19:14:23;9.38;;;4.18;;
53513;SDS011;39768;54.148;12.174;2022-12-13T19:18:27;6.82;;;3.42;;
53513;SDS011;39768;54.148;12.174;2022-12-13T19:22:29;3.30;;;3.05;;
53513;SDS011;39768;54.148;12.174;2022-12-13T19:26:30;4.63;;;4.30;;
53513;SDS011;39768;54.148;12.174;2022-12-13T19:30:32;4.43;;;3.28;;
53513;SDS011;39768;54.148;12.174;2022-12-13T19:34:33;4.85;;;2.05;;
53513;SDS011;39768;54.148;12.174;2022-12-13T19:38:35;9.05;;;3.75;;
53513;SDS011;39768;54.148;12.174;2022-12-13T19:42:36;10.38;;;5.78;;
53513;SDS011;39768;54.148;12.174;2022-12-13T19:46:38;9.75;;;4.05;;
53513;SDS011;39768;54.148;12.174;2022-12-13T19:50:41;8.65;;;4.05;;
53513;SDS011;39768;54.148;12.174;2022-12-13T19:54:43;5.57;;;4.32;;
53513;SDS011;39768;54.148;12.174;2022-12-13T19:58:44;8.52;;;4.32;;
53513;SDS011;39768;54.148;12.174;2022-12-13T20:02:47;2.42;;;2.25;;
53513;SDS011;39768;54.148;12.174;2022-12-13T20:06:49;5.53;;;2.90;;
53513;SDS011;39768;54.148;12.174;2022-12-13T20:10:56;16.80;;;5.05;;
53513;SDS011;39768;54.148;12.174;2022-12-13T20:14:58;7.97;;;5.55;;
53513;SDS011;39768;54.148;12.174;2022-12-13T20:19:02;5.88;;;4.05;;
53513;SDS011;39768;54.148;12.174;2022-12-13T20:23:04;5.90;;;3.30;;
53513;SDS011;39768;54.148;12.174;2022-12-13T20:27:06;1.80;;;1.67;;
53513;SDS011;39768;54.148;12.174;2022-12-13T20:31:11;2.70;;;2.45;;
53513;SDS011;39768;54.148;12.174;2022-12-13T20:35:14;8.13;;;5.53;;
53513;SDS011;39768;54.148;12.174;2022-12-13T20:39:16;7.43;;;3.70;;
53513;SDS011;39768;54.148;12.174;2022-12-13T20:43:17;4.72;;;2.85;;
53513;SDS011;39768;54.148;12.174;2022-12-13T20:47:19;1.77;;;1.10;;
53513;SDS011;39768;54.148;12.174;2022-12-13T20:51:21;5.30;;;3.38;;
53513;SDS011;39768;54.148;12.174;2022-12-13T20:55:24;6.88;;;4.20;;
53513;SDS011;39768;54.148;12.174;2022-12-13T20:59:26;6.32;;;4.10;;
53513;SDS011;39768;54.148;12.174;2022-12-13T21:03:28;4.55;;;4.00;;
53513;SDS011;39768;54.148;12.174;2022-12-13T21:07:29;5.13;;;2.40;;
53513;SDS011;39768;54.148;12.174;2022-12-13T21:11:57;8.45;;;2.97;;
53513;SDS011;39768;54.148;12.174;2022-12-13T21:16:03;3.83;;;3.03;;
53513;SDS011;39768;54.148;12.174;2022-12-13T21:20:06;2.70;;;2.20;;
53513;SDS011;39768;54.148;12.174;2022-12-13T21:24:08;6.10;;;3.60;;
53513;SDS011;39768;54.148;12.174;2022-12-13T21:28:15;8.20;;;4.47;;
53513;SDS011;39768;54.148;12.174;2022-12-13T21:32:16;7.53;;;3.08;;
53513;SDS011;39768;54.148;12.174;2022-12-13T21:36:19;2.13;;;1.92;;
53513;SDS011;39768;54.148;12.174;2022-12-13T21:40:26;14.52;;;4.10;;
53513;SDS011;39768;54.148;12.174;2022-12-13T21:44:30;4.75;;;2.78;;
53513;SDS011;39768;54.148;12.174;2022-12-13T21:48:31;4.97;;;2.03;;
53513;SDS011;39768;54.148;12.174;2022-12-13T21:52:33;6.25;;;3.75;;
53513;SDS011;39768;54.148;12.174;2022-12-13T21:56:34;3.35;;;3.05;;
53513;SDS011;39768;54.148;12.174;2022-12-13T22:04:57;2.97;;;2.17;;
53513;SDS011;39768;54.148;12.174;2022-12-13T22:08:59;8.23;;;3.08;;
53513;SDS011;39768;54.148;12.174;2022-12-13T22:13:00;2.15;;;1.95;;
53513;SDS011;39768;54.148;12.174;2022-12-13T22:17:02;4.00;;;2.72;;
53513;SDS011;39768;54.148;12.174;2022-12-13T22:21:04;3.97;;;2.42;;
53513;SDS011;39768;54.148;12.174;2022-12-13T22:25:06;9.27;;;2.30;;
53513;SDS011;39768;54.148;12.174;2022-12-13T22:29:12;1.27;;;1.23;;
53513;SDS011;39768;54.148;12.174;2022-12-13T22:33:13;3.42;;;3.10;;
53513;SDS011;39768;54.148;12.174;2022-12-13T22:37:15;1.50;;;1.50;;
53513;SDS011;39768;54.148;12.174;2022-12-13T22:41:16;13.57;;;2.88;;
53513;SDS011;39768;54.148;12.174;2022-12-13T22:45:19;4.13;;;3.45;;
53513;SDS011;39768;54.148;12.174;2022-12-13T22:49:20;6.97;;;4.45;;
53513;SDS011;39768;54.148;12.174;2022-12-13T22:53:22;5.85;;;2.95;;
53513;SDS011;39768;54.148;12.174;2022-12-13T22:57:24;10.60;;;4.43;;
53513;SDS011;39768;54.148;12.174;2022-12-13T23:01:26;14.75;;;4.78;;
53513;SDS011;39768;54.148;12.174;2022-12-13T23:05:33;11.18;;;4.30;;
53513;SDS011;39768;54.148;12.174;2022-12-13T23:09:34;9.38;;;5.15;;
53513;SDS011;39768;54.148;12.174;2022-12-13T23:13:35;7.88;;;5.00;;
53513;SDS011;39768;54.148;12.174;2022-12-13T23:17:37;5.15;;;4.45;;
53513;SDS011;39768;54.148;12.174;2022-12-13T23:21:38;12.23;;;4.90;;
53513;SDS011;39768;54.148;12.174;2022-12-13T23:25:40;7.85;;;4.35;;
53513;SDS011;39768;54.148;12.174;2022-12-13T23:29:42;8.43;;;4.20;;
53513;SDS011;39768;54.148;12.174;2022-12-13T23:33:43;7.43;;;4.63;;
53513;SDS011;39768;54.148;12.174;2022-12-13T23:37:45;4.88;;;2.92;;
53513;SDS011;39768;54.148;12.174;2022-12-13T23:41:48;8.23;;;4.15;;
53513;SDS011;39768;54.148;12.174;2022-12-13T23:45:50;14.85;;;4.38;;
53513;SDS011;39768;54.148;12.174;2022-12-13T23:49:52;7.18;;;4.57;;
53513;SDS011;39768;54.148;12.174;2022-12-13T23:53:53;9.55;;;4.15;;
53513;SDS011;39768;54.148;12.174;2022-12-13T23:57:55;14.23;;;5.55;;
